PWSweather.com
Personal Weather Stations
Station Observations
KORGRANT1
Redwood Area, Grants Pass, OR 97527

Redwood AreaGrants Pass, OR 97527

Lat: 42.429029, Lon: -123.386359

Elevation: 915

Station Type: RainWise MK-III RTI

http://www.grantspassweather.com

High Low Average
Temperature 54.7°F12.6°C 40.7°F4.8°C 45.9°F7.7°C
Dew Point 51.2°F10.7°C 38.3°F3.5°C 41.2°F5.1°C
Winds 14.6 mph 23.5 kmh Calm Calm 7.0 mph SW11.3 kmh SW
Wind Gusts 22.0 mph35.4 kmh -- 10.0 mph16.1 kmh
Humidity 97% 58% 85%
Pressure 29.80 in1009.1 mb 29.66 in1004.4 mb -
Precipitation 0.31 in7.9 mm - -
Hour Temp Dew Point Humidity Winds Wind Gusts Pressure Precip Precip Rate Daily Precip Total
12:00 AM 41.7°F5.4°C 40.7°F4.8°C 96% 0.8 mph S1.3 kmh S 4.0 mph6.4 kmh 29.69 in1005.4 mb 0.00 in0.0 mm 0.00 in/hr0.0 mm/hr 0.11 in2.8 mm
12:15 AM 41.7°F5.4°C 40.7°F4.8°C 96% 3.1 mph SW5.0 kmh SW 4.0 mph6.4 kmh 29.69 in1005.4 mb 0.00 in0.0 mm 0.00 in/hr0.0 mm/hr 0.11 in2.8 mm
12:30 AM 41.7°F5.4°C 40.7°F4.8°C 96% 2.7 mph SSW4.3 kmh SSW 4.0 mph6.4 kmh 29.69 in1005.4 mb 0.00 in0.0 mm 0.00 in/hr0.0 mm/hr 0.11 in2.8 mm
12:45 AM 41.7°F5.4°C 40.7°F4.8°C 96% Calm Calm -- 29.69 in1005.4 mb 0.00 in0.0 mm 0.00 in/hr0.0 mm/hr 0.11 in2.8 mm
01:00 AM 41.7°F5.4°C 40.7°F4.8°C 96% Calm Calm -- 29.67 in1004.7 mb 0.00 in0.0 mm 0.00 in/hr0.0 mm/hr 0.11 in2.8 mm
01:15 AM 41.7°F5.4°C 40.7°F4.8°C 96% 0.9 mph SSW1.4 kmh SSW 1.0 mph1.6 kmh 29.67 in1004.7 mb 0.00 in0.0 mm 0.00 in/hr0.0 mm/hr 0.11 in2.8 mm
01:30 AM 41.7°F5.4°C 40.7°F4.8°C 96% 5.6 mph SW9.0 kmh SW 6.0 mph9.7 kmh 29.67 in1004.7 mb 0.00 in0.0 mm 0.00 in/hr0.0 mm/hr 0.11 in2.8 mm
01:45 AM 41.7°F5.4°C 40.7°F4.8°C 96% Calm Calm -- 29.67 in1004.7 mb 0.00 in0.0 mm 0.00 in/hr0.0 mm/hr 0.11 in2.8 mm
02:00 AM 41.7°F5.4°C 40.7°F4.8°C 96% 1.3 mph SE2.1 kmh SE 2.0 mph3.2 kmh 29.66 in1004.4 mb 0.00 in0.0 mm 0.00 in/hr0.0 mm/hr 0.11 in2.8 mm
02:15 AM 41.7°F5.4°C 40.7°F4.8°C 96% 1.0 mph SE1.6 kmh SE 1.0 mph1.6 kmh 29.66 in1004.4 mb 0.00 in0.0 mm 0.00 in/hr0.0 mm/hr 0.11 in2.8 mm
02:30 AM 41.7°F5.4°C 40.7°F4.8°C 96% 6.5 mph SW10.5 kmh SW 7.0 mph11.3 kmh 29.66 in1004.4 mb 0.00 in0.0 mm 0.00 in/hr0.0 mm/hr 0.11 in2.8 mm
02:45 AM 42.7°F5.9°C 41.7°F5.4°C 96% 9.3 mph WSW15.0 kmh WSW 15.0 mph24.1 kmh 29.68 in1005.1 mb 0.00 in0.0 mm 0.00 in/hr0.0 mm/hr 0.11 in2.8 mm
03:00 AM 42.7°F5.9°C 41.7°F5.4°C 96% 13.3 mph SW21.4 kmh SW 18.0 mph29.0 kmh 29.69 in1005.4 mb 0.07 in1.8 mm 0.09 in/hr2.3 mm/hr 0.18 in4.6 mm
03:15 AM 42.7°F5.9°C 41.1°F5.1°C 94% 9.4 mph S15.1 kmh S 16.0 mph25.7 kmh 29.70 in1005.8 mb 0.03 in0.8 mm 0.12 in/hr3.0 mm/hr 0.21 in5.3 mm
03:30 AM 43.7°F6.5°C 41.8°F5.4°C 93% 3.3 mph S5.3 kmh S 4.0 mph6.4 kmh 29.69 in1005.4 mb 0.00 in0.0 mm 0.00 in/hr0.0 mm/hr 0.21 in5.3 mm
03:45 AM 43.7°F6.5°C 40.1°F4.5°C 87% 6.8 mph ENE10.9 kmh ENE 7.0 mph11.3 kmh 29.70 in1005.8 mb 0.00 in0.0 mm 0.00 in/hr0.0 mm/hr 0.21 in5.3 mm
04:00 AM 43.2°F6.2°C 40.7°F4.8°C 91% 5.4 mph ESE8.7 kmh ESE 9.0 mph14.5 kmh 29.70 in1005.8 mb 0.00 in0.0 mm 0.00 in/hr0.0 mm/hr 0.21 in5.3 mm
04:15 AM 42.7°F5.9°C 40.3°F4.6°C 91% 6.3 mph W10.1 kmh W 8.0 mph12.9 kmh 29.70 in1005.8 mb 0.01 in0.3 mm 0.04 in/hr1.0 mm/hr 0.22 in5.6 mm
04:30 AM 42.3°F5.7°C 40.9°F4.9°C 95% 6.3 mph W10.1 kmh W 7.0 mph11.3 kmh 29.71 in1006.1 mb 0.00 in0.0 mm 0.00 in/hr0.0 mm/hr 0.22 in5.6 mm
04:45 AM 42.2°F5.7°C 40.9°F4.9°C 95% 7.5 mph WSW12.1 kmh WSW 12.0 mph19.3 kmh 29.72 in1006.4 mb 0.00 in0.0 mm 0.00 in/hr0.0 mm/hr 0.22 in5.6 mm
05:00 AM 42.7°F5.9°C 40.8°F4.9°C 93% 13.9 mph SSW22.4 kmh SSW 22.0 mph35.4 kmh 29.74 in1007.1 mb 0.02 in0.5 mm 0.03 in/hr0.8 mm/hr 0.24 in6.1 mm
05:15 AM 42.2°F5.7°C 40.6°F4.8°C 94% 6.9 mph S11.1 kmh S 19.0 mph30.6 kmh 29.74 in1007.1 mb 0.02 in0.5 mm 0.08 in/hr2.0 mm/hr 0.26 in6.6 mm
05:30 AM 41.7°F5.4°C 40.7°F4.8°C 96% 5.5 mph S8.9 kmh S 10.0 mph16.1 kmh 29.74 in1007.1 mb 0.02 in0.5 mm 0.08 in/hr2.0 mm/hr 0.28 in7.1 mm
05:45 AM 41.7°F5.4°C 40.7°F4.8°C 96% 1.6 mph WSW2.6 kmh WSW 4.0 mph6.4 kmh 29.75 in1007.5 mb 0.01 in0.3 mm 0.04 in/hr1.0 mm/hr 0.29 in7.4 mm
06:00 AM 40.7°F4.8°C 39.7°F4.3°C 96% 4.4 mph S7.1 kmh S 7.0 mph11.3 kmh 29.76 in1007.8 mb 0.01 in0.3 mm 0.01 in/hr0.3 mm/hr 0.30 in7.6 mm
06:15 AM 41.7°F5.4°C 40.1°F4.5°C 94% 8.5 mph SSW13.7 kmh SSW 13.0 mph20.9 kmh 29.76 in1007.8 mb 0.00 in0.0 mm 0.00 in/hr0.0 mm/hr 0.30 in7.6 mm
06:30 AM 41.2°F5.1°C 39.8°F4.3°C 95% 7.8 mph S12.6 kmh S 11.0 mph17.7 kmh 29.78 in1008.5 mb 0.00 in0.0 mm 0.00 in/hr0.0 mm/hr 0.30 in7.6 mm
06:45 AM 40.7°F4.8°C 39.1°F3.9°C 94% 9.9 mph SW15.9 kmh SW 11.0 mph17.7 kmh 29.78 in1008.5 mb 0.01 in0.3 mm 0.04 in/hr1.0 mm/hr 0.31 in7.9 mm
07:00 AM 40.7°F4.8°C 38.9°F3.8°C 93% 5.2 mph SW8.4 kmh SW 7.0 mph11.3 kmh 29.78 in1008.5 mb 0.00 in0.0 mm 0.00 in/hr0.0 mm/hr 0.20 in5.1 mm
07:15 AM 40.7°F4.8°C 39.7°F4.3°C 96% 3.9 mph SW6.3 kmh SW 5.0 mph8.0 kmh 29.78 in1008.5 mb 0.00 in0.0 mm 0.00 in/hr0.0 mm/hr 0.20 in5.1 mm
07:30 AM 41.7°F5.4°C 39.6°F4.2°C 92% 6.5 mph WSW10.5 kmh WSW 8.0 mph12.9 kmh 29.78 in1008.5 mb 0.00 in0.0 mm 0.00 in/hr0.0 mm/hr 0.20 in5.1 mm
07:45 AM 41.7°F5.4°C 39.3°F4.1°C 91% 7.6 mph W12.2 kmh W 9.0 mph14.5 kmh 29.78 in1008.5 mb 0.00 in0.0 mm 0.00 in/hr0.0 mm/hr 0.20 in5.1 mm
08:00 AM 41.7°F5.4°C 40.7°F4.8°C 96% 5.3 mph S8.5 kmh S 6.0 mph9.7 kmh 29.79 in1008.8 mb 0.00 in0.0 mm 0.00 in/hr0.0 mm/hr 0.20 in5.1 mm
08:15 AM 41.7°F5.4°C 40.7°F4.8°C 96% 0.2 mph S0.3 kmh S 3.0 mph4.8 kmh 29.79 in1008.8 mb 0.00 in0.0 mm 0.00 in/hr0.0 mm/hr 0.20 in5.1 mm
08:30 AM 42.7°F5.9°C 41.4°F5.2°C 95% 3.6 mph S5.8 kmh S 5.0 mph8.0 kmh 29.78 in1008.5 mb 0.00 in0.0 mm 0.00 in/hr0.0 mm/hr 0.20 in5.1 mm
08:45 AM 43.7°F6.5°C 42.1°F5.6°C 94% 6.8 mph E10.9 kmh E 9.0 mph14.5 kmh 29.79 in1008.8 mb 0.00 in0.0 mm 0.00 in/hr0.0 mm/hr 0.20 in5.1 mm
09:00 AM 44.7°F7.1°C 41.4°F5.2°C 88% 4.9 mph SE7.9 kmh SE 6.0 mph9.7 kmh 29.80 in1009.1 mb 0.00 in0.0 mm 0.00 in/hr0.0 mm/hr 0.20 in5.1 mm
09:15 AM 44.7°F7.1°C 41.4°F5.2°C 88% 2.1 mph E3.4 kmh E 5.0 mph8.0 kmh 29.80 in1009.1 mb 0.00 in0.0 mm 0.00 in/hr0.0 mm/hr 0.20 in5.1 mm
09:30 AM 43.7°F6.5°C 40.1°F4.5°C 87% 5.7 mph SE9.2 kmh SE 7.0 mph11.3 kmh 29.79 in1008.8 mb 0.00 in0.0 mm 0.00 in/hr0.0 mm/hr 0.20 in5.1 mm
09:45 AM 46.7°F8.2°C 41.5°F5.3°C 82% 1.3 mph SSW2.1 kmh SSW 6.0 mph9.7 kmh 29.79 in1008.8 mb 0.00 in0.0 mm 0.00 in/hr0.0 mm/hr 0.20 in5.1 mm
10:00 AM 47.7°F8.7°C 40.2°F4.6°C 75% 6.7 mph SSW10.8 kmh SSW 10.0 mph16.1 kmh 29.78 in1008.5 mb 0.00 in0.0 mm 0.00 in/hr0.0 mm/hr 0.20 in5.1 mm
10:15 AM 48.7°F9.3°C 39.7°F4.3°C 71% 8.4 mph SW13.5 kmh SW 11.0 mph17.7 kmh 29.79 in1008.8 mb 0.00 in0.0 mm 0.00 in/hr0.0 mm/hr 0.20 in5.1 mm
10:30 AM 47.7°F8.7°C 38.8°F3.8°C 71% 6.2 mph SW10.0 kmh SW 7.0 mph11.3 kmh 29.79 in1008.8 mb 0.00 in0.0 mm 0.00 in/hr0.0 mm/hr 0.20 in5.1 mm
10:45 AM 48.7°F9.3°C 40.1°F4.5°C 72% 3.0 mph SW4.8 kmh SW 5.0 mph8.0 kmh 29.79 in1008.8 mb 0.00 in0.0 mm 0.00 in/hr0.0 mm/hr 0.20 in5.1 mm
11:00 AM 49.2°F9.6°C 40.2°F4.6°C 71% 3.8 mph WNW6.1 kmh WNW 6.0 mph9.7 kmh 29.79 in1008.8 mb 0.00 in0.0 mm 0.00 in/hr0.0 mm/hr 0.20 in5.1 mm
11:15 AM 49.7°F9.8°C 42.8°F6.0°C 77% 5.1 mph W8.2 kmh W 6.0 mph9.7 kmh 29.79 in1008.8 mb 0.00 in0.0 mm 0.00 in/hr0.0 mm/hr 0.20 in5.1 mm
11:30 AM 50.7°F10.4°C 49.1°F9.5°C 94% 2.1 mph S3.4 kmh S 5.0 mph8.0 kmh 29.78 in1008.5 mb 0.00 in0.0 mm 0.00 in/hr0.0 mm/hr 0.20 in5.1 mm
11:45 AM 53.7°F12.1°C 51.2°F10.7°C 91% 1.3 mph S2.1 kmh S 5.0 mph8.0 kmh 29.78 in1008.5 mb 0.00 in0.0 mm 0.00 in/hr0.0 mm/hr 0.20 in5.1 mm
12:00 PM 51.3°F10.7°C 43.6°F6.4°C 75% 10.8 mph WSW17.4 kmh WSW 14.0 mph22.5 kmh 29.77 in1008.1 mb 0.00 in0.0 mm 0.00 in/hr0.0 mm/hr 0.20 in5.1 mm
12:15 PM 48.7°F9.3°C 44.1°F6.7°C 84% 9.3 mph WSW15.0 kmh WSW 12.0 mph19.3 kmh 29.78 in1008.5 mb 0.00 in0.0 mm 0.00 in/hr0.0 mm/hr 0.20 in5.1 mm
12:30 PM 50.2°F10.1°C 44.5°F6.9°C 81% 6.5 mph WSW10.5 kmh WSW 9.0 mph14.5 kmh 29.76 in1007.8 mb 0.00 in0.0 mm 0.00 in/hr0.0 mm/hr 0.20 in5.1 mm
12:45 PM 50.7°F10.4°C 49.9°F9.9°C 97% 6.0 mph SW9.7 kmh SW 7.0 mph11.3 kmh 29.75 in1007.5 mb 0.00 in0.0 mm 0.00 in/hr0.0 mm/hr 0.20 in5.1 mm
01:00 PM 51.7°F10.9°C 50.3°F10.2°C 95% 4.3 mph WSW6.9 kmh WSW 6.0 mph9.7 kmh 29.75 in1007.5 mb 0.00 in0.0 mm 0.00 in/hr0.0 mm/hr 0.20 in5.1 mm
01:15 PM 51.7°F10.9°C 42.2°F5.7°C 70% 8.5 mph WSW13.7 kmh WSW 15.0 mph24.1 kmh 29.74 in1007.1 mb 0.00 in0.0 mm 0.00 in/hr0.0 mm/hr 0.20 in5.1 mm
01:30 PM 52.7°F11.5°C 40.9°F4.9°C 64% 4.7 mph SW7.6 kmh SW 9.0 mph14.5 kmh 29.73 in1006.8 mb 0.01 in0.3 mm 0.04 in/hr1.0 mm/hr 0.01 in0.3 mm
01:45 PM 53.7°F12.1°C 40.2°F4.6°C 60% 8.9 mph WSW14.3 kmh WSW 13.0 mph20.9 kmh 29.72 in1006.4 mb 0.00 in0.0 mm 0.00 in/hr0.0 mm/hr 0.01 in0.3 mm
02:00 PM 54.7°F12.6°C 40.7°F4.8°C 59% 13.7 mph WSW22.0 kmh WSW 22.0 mph35.4 kmh 29.73 in1006.8 mb 0.00 in0.0 mm 0.00 in/hr0.0 mm/hr 0.01 in0.3 mm
02:15 PM 52.7°F11.5°C 39.2°F4.0°C 60% 14.6 mph WSW23.5 kmh WSW 18.0 mph29.0 kmh 29.73 in1006.8 mb 0.00 in0.0 mm 0.00 in/hr0.0 mm/hr 0.01 in0.3 mm
02:30 PM 53.7°F12.1°C 40.2°F4.6°C 60% 10.0 mph WSW16.1 kmh WSW 16.0 mph25.7 kmh 29.72 in1006.4 mb 0.00 in0.0 mm 0.00 in/hr0.0 mm/hr 0.01 in0.3 mm
02:45 PM 52.7°F11.5°C 38.3°F3.5°C 58% 13.4 mph WSW21.6 kmh WSW 20.0 mph32.2 kmh 29.72 in1006.4 mb 0.00 in0.0 mm 0.00 in/hr0.0 mm/hr 0.01 in0.3 mm
03:00 PM 52.7°F11.5°C 38.3°F3.5°C 58% 10.5 mph WSW16.9 kmh WSW 15.0 mph24.1 kmh 29.72 in1006.4 mb 0.00 in0.0 mm 0.00 in/hr0.0 mm/hr 0.01 in0.3 mm
03:15 PM 49.7°F9.8°C 41.1°F5.1°C 72% 11.5 mph SW18.5 kmh SW 18.0 mph29.0 kmh 29.72 in1006.4 mb 0.00 in0.0 mm 0.00 in/hr0.0 mm/hr 0.01 in0.3 mm
03:30 PM 49.7°F9.8°C 41.4°F5.2°C 73% 9.2 mph SW14.8 kmh SW 13.0 mph20.9 kmh 29.74 in1007.1 mb 0.00 in0.0 mm 0.00 in/hr0.0 mm/hr 0.01 in0.3 mm
03:45 PM 48.7°F9.3°C 39.0°F3.9°C 69% 8.2 mph SW13.2 kmh SW 12.0 mph19.3 kmh 29.74 in1007.1 mb 0.00 in0.0 mm 0.00 in/hr0.0 mm/hr 0.01 in0.3 mm
04:00 PM 48.7°F9.3°C 38.6°F3.7°C 68% 12.6 mph SW20.3 kmh SW 15.0 mph24.1 kmh 29.74 in1007.1 mb 0.00 in0.0 mm 0.00 in/hr0.0 mm/hr 0.01 in0.3 mm
04:15 PM 48.7°F9.3°C 40.8°F4.9°C 74% 9.0 mph W14.5 kmh W 12.0 mph19.3 kmh 29.73 in1006.8 mb 0.00 in0.0 mm 0.00 in/hr0.0 mm/hr 0.01 in0.3 mm
04:30 PM 48.7°F9.3°C 40.4°F4.7°C 73% 7.6 mph WSW12.2 kmh WSW 12.0 mph19.3 kmh 29.73 in1006.8 mb 0.00 in0.0 mm 0.00 in/hr0.0 mm/hr 0.01 in0.3 mm
04:45 PM 47.7°F8.7°C 39.8°F4.3°C 74% 10.1 mph WSW16.3 kmh WSW 15.0 mph24.1 kmh 29.72 in1006.4 mb 0.00 in0.0 mm 0.00 in/hr0.0 mm/hr 0.01 in0.3 mm
05:00 PM 47.7°F8.7°C 40.5°F4.7°C 76% 8.1 mph WSW13.0 kmh WSW 10.0 mph16.1 kmh 29.72 in1006.4 mb 0.00 in0.0 mm 0.00 in/hr0.0 mm/hr 0.01 in0.3 mm
05:15 PM 48.7°F9.3°C 40.8°F4.9°C 74% 8.7 mph WSW14.0 kmh WSW 13.0 mph20.9 kmh 29.72 in1006.4 mb 0.00 in0.0 mm 0.00 in/hr0.0 mm/hr 0.01 in0.3 mm
05:30 PM 47.7°F8.7°C 39.8°F4.3°C 74% 8.4 mph WSW13.5 kmh WSW 12.0 mph19.3 kmh 29.71 in1006.1 mb 0.00 in0.0 mm 0.00 in/hr0.0 mm/hr 0.01 in0.3 mm
05:45 PM 48.7°F9.3°C 41.1°F5.1°C 75% 5.0 mph WSW8.0 kmh WSW 7.0 mph11.3 kmh 29.71 in1006.1 mb 0.00 in0.0 mm 0.00 in/hr0.0 mm/hr 0.01 in0.3 mm
06:00 PM 47.7°F8.7°C 39.5°F4.2°C 73% 3.5 mph W5.6 kmh W 4.0 mph6.4 kmh 29.70 in1005.8 mb 0.00 in0.0 mm 0.00 in/hr0.0 mm/hr 0.01 in0.3 mm
06:15 PM 47.7°F8.7°C 39.8°F4.3°C 74% 5.5 mph W8.9 kmh W 6.0 mph9.7 kmh 29.69 in1005.4 mb 0.00 in0.0 mm 0.00 in/hr0.0 mm/hr 0.01 in0.3 mm
06:30 PM 48.7°F9.3°C 39.7°F4.3°C 71% 3.0 mph W4.8 kmh W 2.0 mph3.2 kmh 29.68 in1005.1 mb 0.00 in0.0 mm 0.00 in/hr0.0 mm/hr 0.01 in0.3 mm
06:45 PM 50.7°F10.4°C 39.8°F4.3°C 66% 1.6 mph WSW2.6 kmh WSW 4.0 mph6.4 kmh 29.67 in1004.7 mb 0.00 in0.0 mm 0.00 in/hr0.0 mm/hr 0.01 in0.3 mm
07:00 PM 50.7°F10.4°C 40.2°F4.6°C 67% 0.6 mph W1.0 kmh W 1.0 mph1.6 kmh 29.68 in1005.1 mb 0.00 in0.0 mm 0.00 in/hr0.0 mm/hr 0.01 in0.3 mm
07:15 PM 48.7°F9.3°C 39.0°F3.9°C 69% 4.6 mph SW7.4 kmh SW 5.0 mph8.0 kmh 29.68 in1005.1 mb 0.00 in0.0 mm 0.00 in/hr0.0 mm/hr 0.01 in0.3 mm
07:30 PM 48.7°F9.3°C 39.7°F4.3°C 71% 1.8 mph SW2.9 kmh SW 3.0 mph4.8 kmh 29.68 in1005.1 mb 0.00 in0.0 mm 0.00 in/hr0.0 mm/hr 0.01 in0.3 mm
07:45 PM 47.7°F8.7°C 39.5°F4.2°C 73% Calm Calm -- 29.68 in1005.1 mb 0.00 in0.0 mm 0.00 in/hr0.0 mm/hr 0.01 in0.3 mm
08:00 PM 47.7°F8.7°C 41.2°F5.1°C 78% 1.0 mph WSW1.6 kmh WSW 2.0 mph3.2 kmh 29.68 in1005.1 mb 0.00 in0.0 mm 0.00 in/hr0.0 mm/hr 0.01 in0.3 mm
08:15 PM 47.7°F8.7°C 41.5°F5.3°C 79% Calm Calm -- 29.68 in1005.1 mb 0.00 in0.0 mm 0.00 in/hr0.0 mm/hr 0.01 in0.3 mm
08:30 PM 47.7°F8.7°C 42.2°F5.7°C 81% 2.3 mph SW3.7 kmh SW 3.0 mph4.8 kmh 29.67 in1004.7 mb 0.00 in0.0 mm 0.00 in/hr0.0 mm/hr 0.01 in0.3 mm
08:45 PM 46.7°F8.2°C 42.4°F5.8°C 85% 4.9 mph WSW7.9 kmh WSW 7.0 mph11.3 kmh 29.68 in1005.1 mb 0.00 in0.0 mm 0.00 in/hr0.0 mm/hr 0.01 in0.3 mm
09:00 PM 46.7°F8.2°C 42.1°F5.6°C 84% 7.9 mph SW12.7 kmh SW 12.0 mph19.3 kmh 29.70 in1005.8 mb 0.00 in0.0 mm 0.00 in/hr0.0 mm/hr 0.01 in0.3 mm
09:15 PM 45.3°F7.4°C 42.5°F5.8°C 90% 14.1 mph SW22.7 kmh SW 19.0 mph30.6 kmh 29.70 in1005.8 mb 0.00 in0.0 mm 0.00 in/hr0.0 mm/hr 0.01 in0.3 mm
09:30 PM 43.7°F6.5°C 42.7°F5.9°C 96% 10.2 mph SW16.4 kmh SW 15.0 mph24.1 kmh 29.73 in1006.8 mb 0.03 in0.8 mm 0.12 in/hr3.0 mm/hr 0.04 in1.0 mm
09:45 PM 43.7°F6.5°C 42.7°F5.9°C 96% 5.9 mph SW9.5 kmh SW 6.0 mph9.7 kmh 29.73 in1006.8 mb 0.01 in0.3 mm 0.04 in/hr1.0 mm/hr 0.05 in1.3 mm
10:00 PM 43.7°F6.5°C 42.7°F5.9°C 96% 4.1 mph NE6.6 kmh NE 6.0 mph9.7 kmh 29.72 in1006.4 mb 0.00 in0.0 mm 0.00 in/hr0.0 mm/hr 0.05 in1.3 mm
10:15 PM 43.7°F6.5°C 40.7°F4.8°C 89% 6.1 mph W9.8 kmh W 7.0 mph11.3 kmh 29.72 in1006.4 mb 0.00 in0.0 mm 0.00 in/hr0.0 mm/hr 0.05 in1.3 mm
10:30 PM 42.7°F5.9°C 41.7°F5.4°C 96% 5.0 mph E8.0 kmh E 6.0 mph9.7 kmh 29.71 in1006.1 mb 0.00 in0.0 mm 0.00 in/hr0.0 mm/hr 0.05 in1.3 mm
10:45 PM 42.7°F5.9°C 41.7°F5.4°C 96% 2.5 mph WSW4.0 kmh WSW 3.0 mph4.8 kmh 29.70 in1005.8 mb 0.00 in0.0 mm 0.00 in/hr0.0 mm/hr 0.05 in1.3 mm
11:00 PM 41.7°F5.4°C 40.7°F4.8°C 96% 2.4 mph SSW3.9 kmh SSW 3.0 mph4.8 kmh 29.71 in1006.1 mb 0.00 in0.0 mm 0.00 in/hr0.0 mm/hr 0.05 in1.3 mm
11:15 PM 40.7°F4.8°C 39.7°F4.3°C 96% Calm Calm -- 29.71 in1006.1 mb 0.00 in0.0 mm 0.00 in/hr0.0 mm/hr 0.05 in1.3 mm
11:30 PM 40.7°F4.8°C 39.7°F4.3°C 96% 3.6 mph SE5.8 kmh SE 5.0 mph8.0 kmh 29.72 in1006.4 mb 0.00 in0.0 mm 0.00 in/hr0.0 mm/hr 0.05 in1.3 mm
11:45 PM 39.7°F4.3°C 38.7°F3.7°C 96% 0.4 mph SE0.6 kmh SE 1.0 mph1.6 kmh 29.72 in1006.4 mb 0.00 in0.0 mm 0.00 in/hr0.0 mm/hr 0.05 in1.3 mm